Terminal Aerodrome Forecast
Issued by NWS Sterling, VA

Home | Current Version | Previous Version | Text Only | Print | Product List | Glossary On
Versions: 1 2 3 4 5 6 7 8 9 10 11 12 13 14 15 16 17 18 19 20 21 22 23 24 25
149
FTUS41 KLWX 290029 AAA
TAFBWI
TAF AMD
KBWI 290029Z 2900/3006 10007KT P6SM FEW009 OVC013
      TEMPO 2901/2903 1SM -TSRA BKN010CB
     FM290300 11004KT 5SM -SHRA VCTS OVC060CB
     FM290600 13005KT P6SM SHRA VCTS OVC045CB
     FM290900 18005KT P6SM -SHRA BKN045
     FM291200 30005KT P6SM OVC045
     FM291500 32009KT P6SM BKN040
     FM292300 02005KT P6SM BKN050=

USA.gov is the U.S. government's official web portal to all federal, state and local government web resources and services.